Time;durP1;ratioP1;P1;durP2;ratioP2;P2;SDS_P1;SDS_P2;PMS_P1;PMS_P2;Temp;Humidity;BMP_temperature;BMP_pressure;BME280_temperature;BME280_humidity;BME280_pressure;Samples;Min_cycle;Max_cycle;Signal;HPM_P1;HPM_P2
2022/12/01 00:00:14;;;;;;;26.73;13.77;;;9.20;55.30;;;;;;4915664;29;21062;-86
2022/12/01 00:02:41;;;;;;;31.13;14.23;;;9.20;55.70;;;;;;4917463;29;20476;-85
2022/12/01 00:05:09;;;;;;;24.17;12.90;;;9.40;56.00;;;;;;4916468;29;21481;-83
2022/12/01 00:07:36;;;;;;;29.97;12.73;;;9.60;55.90;;;;;;4900654;29;20483;-84
2022/12/01 00:12:50;;;;;;;29.17;13.53;;;9.00;55.70;;;;;;4908747;29;20545;-85
2022/12/01 00:15:17;;;;;;;28.80;14.40;;;9.10;55.50;;;;;;4924784;29;20565;-85
2022/12/01 00:17:44;;;;;;;27.37;14.10;;;9.20;55.80;;;;;;4914528;29;20466;-87
2022/12/01 00:20:12;;;;;;;30.53;14.90;;;8.90;55.80;;;;;;4917737;29;20460;-85
2022/12/01 00:22:42;;;;;;;31.13;14.23;;;8.70;56.10;;;;;;4924710;29;20477;-85
2022/12/01 00:25:11;;;;;;;29.77;14.33;;;8.80;56.70;;;;;;4933323;29;20451;-87
2022/12/01 00:27:38;;;;;;;27.33;13.37;;;8.70;56.20;;;;;;4933645;29;20444;-86
2022/12/01 00:30:07;;;;;;;26.60;14.37;;;8.90;56.70;;;;;;4926023;29;20448;-87
2022/12/01 00:32:34;;;;;;;35.73;17.03;;;9.10;56.00;;;;;;4895146;29;20526;-85
2022/12/01 00:35:02;;;;;;;27.57;13.47;;;9.20;55.80;;;;;;4914972;29;20483;-85
2022/12/01 00:37:30;;;;;;;26.03;12.97;;;9.30;55.60;;;;;;4918184;29;20963;-88
2022/12/01 00:39:57;;;;;;;33.00;14.43;;;9.10;55.40;;;;;;4911397;29;21010;-86
2022/12/01 00:42:26;;;;;;;27.77;13.67;;;9.20;56.00;;;;;;4923965;29;20474;-85
2022/12/01 00:44:53;;;;;;;23.80;11.40;;;8.90;55.80;;;;;;4916843;29;21051;-87
2022/12/01 00:47:20;;;;;;;32.73;15.40;;;8.70;55.90;;;;;;4907284;29;20974;-85
2022/12/01 00:49:47;;;;;;;30.93;14.00;;;8.70;56.60;;;;;;4903920;29;21083;-84
2022/12/01 00:52:16;;;;;;;30.53;13.30;;;8.80;55.80;;;;;;4906017;29;20451;-89
2022/12/01 00:54:43;;;;;;;27.80;14.37;;;8.90;56.10;;;;;;4914423;29;20488;-88
2022/12/01 00:57:10;;;;;;;25.50;13.50;;;9.10;56.30;;;;;;4906182;29;20451;-88
2022/12/01 00:59:39;;;;;;;27.13;12.37;;;9.10;55.30;;;;;;4918951;29;20479;-86
2022/12/01 01:02:07;;;;;;;29.83;13.80;;;9.30;56.00;;;;;;4928262;29;20462;-87
2022/12/01 01:04:36;;;;;;;24.53;13.20;;;9.40;55.10;;;;;;4914196;29;20593;-88
2022/12/01 01:07:03;;;;;;;27.53;13.90;;;9.20;54.30;;;;;;4917768;29;20947;-85
2022/12/01 01:09:32;;;;;;;29.10;14.10;;;9.10;54.50;;;;;;4913852;29;20450;-87
2022/12/01 01:11:59;;;;;;;22.83;12.20;;;8.80;55.30;;;;;;4921890;29;20460;-87
2022/12/01 01:14:26;;;;;;;27.20;13.80;;;8.70;56.00;;;;;;4917158;29;20467;-85
2022/12/01 01:16:55;;;;;;;30.53;13.10;;;8.80;56.30;;;;;;4924862;29;20454;-86
2022/12/01 01:19:22;;;;;;;24.33;13.40;;;8.70;55.40;;;;;;4915536;29;20813;-85
2022/12/01 01:21:49;;;;;;;27.93;12.70;;;8.80;55.70;;;;;;4908793;29;20463;-89
2022/12/01 01:24:16;;;;;;;23.30;12.57;;;8.80;54.70;;;;;;4924177;29;20490;-86
2022/12/01 01:26:43;;;;;;;24.37;12.63;;;9.00;55.00;;;;;;4924482;29;21232;-86
2022/12/01 01:29:10;;;;;;;29.63;12.63;;;9.20;54.80;;;;;;4914376;29;20827;-87
2022/12/01 01:31:37;;;;;;;21.97;11.67;;;9.30;54.50;;;;;;4916240;28;20478;-84
2022/12/01 01:34:05;;;;;;;22.83;12.20;;;9.40;54.50;;;;;;4931749;29;20968;-86
2022/12/01 01:36:32;;;;;;;23.70;12.80;;;9.20;53.70;;;;;;4917819;29;20474;-85
2022/12/01 01:39:01;;;;;;;24.70;13.53;;;9.50;54.40;;;;;;4909566;29;20462;-85
2022/12/01 01:41:28;;;;;;;25.57;12.80;;;9.40;54.50;;;;;;4905347;29;20467;-84
2022/12/01 01:43:57;;;;;;;23.30;12.33;;;9.30;54.00;;;;;;4916717;29;20878;-86
2022/12/01 01:46:26;;;;;;;26.63;11.50;;;9.20;54.20;;;;;;4901494;29;20474;-88
2022/12/01 01:48:56;;;;;;;27.10;13.83;;;9.10;54.70;;;;;;4912227;29;20468;-85
2022/12/01 01:51:29;;;;;;;30.03;15.40;;;9.30;54.80;;;;;;4915033;29;20531;-85
2022/12/01 01:54:01;;;;;;;30.17;14.37;;;9.50;55.20;;;;;;4902280;29;21061;-84
2022/12/01 01:56:29;;;;;;;33.00;13.57;;;9.60;55.00;;;;;;4915744;29;21148;-85
2022/12/01 01:58:56;;;;;;;26.33;13.93;;;9.70;53.70;;;;;;4916383;29;20959;-85
2022/12/01 02:01:23;;;;;;;32.87;15.10;;;9.70;53.80;;;;;;4916372;29;20813;-85
2022/12/01 02:03:52;;;;;;;26.90;14.00;;;9.70;54.30;;;;;;4916826;29;20993;-84
2022/12/01 02:06:21;;;;;;;26.63;12.67;;;9.50;54.00;;;;;;4923567;29;20462;-90
2022/12/01 02:08:50;;;;;;;31.23;14.63;;;9.60;54.50;;;;;;4933852;29;20973;-85
2022/12/01 02:11:57;;;;;;;28.10;13.40;;;9.70;55.10;;;;;;4915821;29;20459;-88
2022/12/01 02:14:39;;;;;;;32.23;13.33;;;9.80;54.30;;;;;;4891691;29;20446;-85
2022/12/01 02:17:17;;;;;;;26.63;13.67;;;9.80;54.50;;;;;;4922792;29;20460;-87
2022/12/01 02:20:07;;;;;;;29.07;14.37;;;9.50;53.80;;;;;;4908451;29;20466;-87
2022/12/01 02:22:45;;;;;;;26.27;13.50;;;9.40;53.30;;;;;;4934146;28;20486;-90
2022/12/01 02:25:20;;;;;;;23.00;12.10;;;9.10;54.50;;;;;;4921266;29;20451;-85
2022/12/01 02:28:12;;;;;;;22.37;12.17;;;9.00;55.00;;;;;;4901978;29;20456;-85
2022/12/01 02:30:43;;;;;;;33.93;13.43;;;9.10;54.80;;;;;;4921309;29;20825;-86
2022/12/01 02:33:18;;;;;;;27.70;12.30;;;9.30;54.40;;;;;;4934014;28;20515;-86
2022/12/01 02:35:50;;;;;;;23.60;12.10;;;9.40;54.70;;;;;;4919081;29;20490;-86
2022/12/01 02:38:25;;;;;;;27.03;13.37;;;9.60;54.80;;;;;;4921083;29;20461;-86
2022/12/01 02:40:57;;;;;;;24.43;12.60;;;9.70;54.70;;;;;;4935734;29;20943;-85
2022/12/01 02:43:31;;;;;;;23.50;12.77;;;9.60;54.50;;;;;;4919843;29;20479;-85
2022/12/01 02:46:05;;;;;;;28.20;12.70;;;9.60;53.60;;;;;;4911269;29;20455;-85
2022/12/01 02:48:34;;;;;;;25.43;13.53;;;9.50;53.80;;;;;;4919779;29;20444;-85
2022/12/01 02:51:06;;;;;;;26.47;12.83;;;9.30;54.00;;;;;;4921904;29;20459;-84
2022/12/01 02:53:34;;;;;;;21.20;11.70;;;9.20;54.40;;;;;;4920853;29;21218;-86
2022/12/01 02:56:01;;;;;;;24.70;11.70;;;9.10;55.20;;;;;;4906969;29;20467;-86
2022/12/01 02:58:28;;;;;;;25.97;12.60;;;9.00;55.20;;;;;;4926601;29;20467;-87
2022/12/01 03:01:09;;;;;;;21.37;11.33;;;9.00;54.80;;;;;;4916389;29;21029;-86
2022/12/01 03:03:59;;;;;;;23.90;13.03;;;9.20;55.20;;;;;;4908988;28;20475;-88
2022/12/01 03:06:36;;;;;;;22.50;11.77;;;9.10;54.40;;;;;;4916538;29;20447;-85
2022/12/01 03:09:11;;;;;;;20.93;10.40;;;9.00;54.60;;;;;;4919508;29;20462;-87
2022/12/01 03:11:46;;;;;;;16.63;8.97;;;8.80;54.40;;;;;;4916961;29;20454;-89
2022/12/01 03:14:21;;;;;;;20.40;10.80;;;8.70;54.50;;;;;;4907030;29;20511;-88
2022/12/01 03:16:52;;;;;;;22.47;10.30;;;8.80;54.40;;;;;;4931464;29;20470;-86
2022/12/01 03:19:27;;;;;;;19.07;10.57;;;8.90;55.30;;;;;;4908086;29;20458;-86
2022/12/01 03:21:59;;;;;;;14.70;9.50;;;8.70;54.10;;;;;;4917442;29;20451;-85
2022/12/01 03:24:31;;;;;;;19.67;11.23;;;8.70;54.70;;;;;;4916358;29;20458;-86
2022/12/01 03:27:00;;;;;;;21.40;10.30;;;8.70;54.80;;;;;;4915950;29;20475;-85
2022/12/01 03:29:33;;;;;;;14.90;10.00;;;8.50;53.30;;;;;;4914567;29;20929;-87
2022/12/01 03:32:08;;;;;;;19.90;9.83;;;8.20;53.90;;;;;;4908929;29;20478;-86
2022/12/01 03:34:39;;;;;;;18.37;9.97;;;8.40;54.20;;;;;;4916439;29;20454;-84
2022/12/01 03:37:11;;;;;;;14.17;8.50;;;8.40;54.50;;;;;;4915627;29;20470;-87
2022/12/01 03:39:39;;;;;;;20.53;9.77;;;8.40;55.20;;;;;;4935793;29;20479;-87
2022/12/01 03:42:13;;;;;;;22.93;10.53;;;8.60;54.00;;;;;;4920827;29;20467;-88
2022/12/01 03:44:46;;;;;;;19.23;10.97;;;8.60;53.50;;;;;;4909022;29;20460;-85
2022/12/01 03:47:18;;;;;;;18.60;9.53;;;8.80;54.60;;;;;;4916826;29;20454;-85
2022/12/01 03:49:46;;;;;;;20.53;10.90;;;9.00;53.40;;;;;;4921653;29;20455;-84
2022/12/01 03:52:22;;;;;;;19.43;9.80;;;8.90;53.60;;;;;;4918603;29;20473;-85
2022/12/01 03:54:55;;;;;;;21.03;11.27;;;8.90;53.40;;;;;;4922700;29;20451;-87
2022/12/01 03:57:27;;;;;;;23.53;10.87;;;9.00;53.10;;;;;;4918632;29;20846;-84
2022/12/01 03:59:54;;;;;;;20.93;10.13;;;9.10;53.90;;;;;;4917104;29;20479;-85
2022/12/01 04:02:26;;;;;;;18.37;10.17;;;8.80;52.60;;;;;;4918352;29;20483;-89
2022/12/01 04:04:53;;;;;;;20.10;10.93;;;8.80;52.90;;;;;;4925460;29;20486;-88
2022/12/01 04:07:21;;;;;;;21.83;11.10;;;9.00;53.10;;;;;;4914911;29;20878;-84
2022/12/01 04:09:48;;;;;;;22.03;10.90;;;9.00;53.00;;;;;;4934187;29;20506;-85
2022/12/01 04:12:29;;;;;;;22.87;10.60;;;9.10;53.40;;;;;;4916339;29;20550;-85
2022/12/01 04:14:57;;;;;;;19.37;10.60;;;9.20;52.70;;;;;;4902602;29;20497;-85
2022/12/01 04:17:27;;;;;;;22.13;11.03;;;9.10;51.80;;;;;;4920731;29;21017;-86
2022/12/01 04:19:54;;;;;;;22.47;10.90;;;9.10;52.40;;;;;;4894157;29;20663;-85
2022/12/01 04:22:21;;;;;;;19.53;10.40;;;9.10;52.40;;;;;;4908818;29;20522;-84
2022/12/01 04:24:48;;;;;;;21.93;11.03;;;8.90;52.10;;;;;;4918107;29;20452;-88
2022/12/01 04:27:15;;;;;;;23.07;12.17;;;8.90;52.10;;;;;;4913446;29;20466;-85
2022/12/01 04:29:42;;;;;;;19.63;9.93;;;8.70;52.80;;;;;;4920637;29;20600;-89
2022/12/01 04:32:09;;;;;;;25.47;11.80;;;8.70;53.30;;;;;;4915851;29;20525;-85
2022/12/01 04:34:37;;;;;;;32.67;15.03;;;8.80;53.00;;;;;;4924539;29;20459;-88
2022/12/01 04:37:06;;;;;;;29.23;13.30;;;8.90;53.00;;;;;;4899878;29;20479;-86
2022/12/01 04:39:33;;;;;;;28.03;12.30;;;9.00;53.10;;;;;;4915702;29;20522;-89
2022/12/01 04:42:00;;;;;;;24.40;12.93;;;9.20;52.90;;;;;;4924245;29;21067;-88
2022/12/01 04:44:28;;;;;;;16.77;9.07;;;9.30;52.70;;;;;;4902280;29;20474;-87
2022/12/01 04:46:55;;;;;;;18.07;10.03;;;9.00;52.60;;;;;;4912006;29;21034;-87
2022/12/01 04:49:22;;;;;;;19.30;10.47;;;9.00;53.00;;;;;;4913724;29;20452;-86
2022/12/01 04:51:50;;;;;;;19.97;10.93;;;9.20;53.90;;;;;;4910078;29;20963;-87
2022/12/01 04:54:18;;;;;;;26.87;13.13;;;9.40;53.70;;;;;;4882852;29;20503;-88
2022/12/01 04:56:45;;;;;;;19.43;10.17;;;9.50;52.90;;;;;;4916865;29;20518;-84
2022/12/01 04:59:12;;;;;;;17.50;8.97;;;9.30;51.90;;;;;;4915296;29;20471;-85
2022/12/01 05:01:39;;;;;;;17.80;10.37;;;8.90;52.20;;;;;;4907915;29;20951;-84
2022/12/01 05:04:06;;;;;;;18.20;9.70;;;9.00;52.90;;;;;;4918634;29;20486;-84
2022/12/01 05:06:34;;;;;;;21.20;11.30;;;9.20;53.00;;;;;;4917510;29;20448;-85
2022/12/01 05:09:03;;;;;;;19.73;10.50;;;9.30;53.40;;;;;;4915373;29;20556;-84
2022/12/01 05:11:31;;;;;;;19.80;11.47;;;9.40;52.90;;;;;;4931683;29;20457;-85
2022/12/01 05:13:59;;;;;;;19.40;9.73;;;9.50;53.00;;;;;;4928388;29;20485;-86
2022/12/01 05:16:27;;;;;;;18.43;9.63;;;9.60;53.40;;;;;;4926560;29;20471;-88
2022/12/01 05:21:37;;;;;;;23.57;10.93;;;9.50;52.50;;;;;;4921585;29;21095;-84
2022/12/01 05:24:07;;;;;;;21.87;10.63;;;9.40;53.10;;;;;;4918333;29;20482;-87
2022/12/01 05:26:34;;;;;;;24.33;11.20;;;9.40;53.30;;;;;;4916509;29;20865;-86
2022/12/01 05:29:01;;;;;;;17.07;9.73;;;9.30;52.30;;;;;;4920098;29;21003;-85
2022/12/01 05:31:28;;;;;;;22.33;11.90;;;9.30;52.80;;;;;;4926656;29;20454;-85
2022/12/01 05:33:55;;;;;;;23.33;10.27;;;9.40;52.80;;;;;;4898534;29;20488;-86
2022/12/01 05:36:22;;;;;;;17.63;9.80;;;9.40;52.70;;;;;;4911682;29;20483;-88
2022/12/01 05:38:49;;;;;;;17.80;8.77;;;9.30;52.50;;;;;;4914687;29;20463;-86
2022/12/01 05:41:17;;;;;;;18.60;9.67;;;9.30;52.60;;;;;;4914845;29;20466;-86
2022/12/01 05:43:44;;;;;;;17.50;9.07;;;9.10;52.60;;;;;;4913499;29;20479;-85
2022/12/01 05:46:11;;;;;;;19.47;10.40;;;9.20;53.10;;;;;;4927381;29;20466;-85
2022/12/01 05:48:38;;;;;;;17.13;10.10;;;9.30;53.10;;;;;;4910558;29;20470;-88
2022/12/01 05:51:09;;;;;;;17.93;10.60;;;9.40;53.70;;;;;;4919104;29;20818;-86
2022/12/01 05:53:36;;;;;;;21.70;9.93;;;9.40;52.90;;;;;;4922224;29;20845;-85
2022/12/01 05:56:03;;;;;;;20.20;10.10;;;9.40;53.10;;;;;;4923984;29;20489;-88
2022/12/01 05:58:31;;;;;;;21.00;9.93;;;9.50;53.60;;;;;;4933913;28;20841;-85
2022/12/01 06:00:58;;;;;;;22.00;11.00;;;9.20;53.10;;;;;;4921541;29;21164;-85
2022/12/01 06:03:25;;;;;;;18.90;9.97;;;9.20;53.60;;;;;;4920410;29;20475;-85
2022/12/01 06:05:52;;;;;;;24.23;11.03;;;9.10;54.10;;;;;;4921338;29;20448;-86
2022/12/01 06:08:19;;;;;;;17.43;9.43;;;9.10;53.80;;;;;;4918500;29;20459;-86
2022/12/01 06:10:47;;;;;;;20.03;9.47;;;9.10;53.60;;;;;;4916911;29;21343;-85
2022/12/01 06:13:14;;;;;;;21.90;9.67;;;9.10;53.30;;;;;;4917933;29;20479;-85
2022/12/01 06:15:42;;;;;;;20.83;10.17;;;8.80;53.40;;;;;;4918978;29;20553;-85
2022/12/01 06:18:09;;;;;;;17.93;10.10;;;8.90;53.80;;;;;;4918814;29;20483;-84
2022/12/01 06:20:36;;;;;;;20.27;9.30;;;9.10;54.20;;;;;;4911904;29;20501;-87
2022/12/01 06:23:03;;;;;;;19.17;11.60;;;9.20;53.30;;;;;;4917933;29;20478;-84
2022/12/01 06:25:30;;;;;;;19.80;9.87;;;9.30;53.90;;;;;;4920671;29;20647;-87
2022/12/01 06:27:57;;;;;;;23.67;10.03;;;9.30;53.60;;;;;;4933343;29;20483;-85
2022/12/01 06:30:25;;;;;;;21.70;10.87;;;9.40;53.80;;;;;;4919028;29;20454;-85
2022/12/01 06:32:53;;;;;;;18.90;10.20;;;9.30;53.50;;;;;;4906300;29;20489;-85
2022/12/01 06:35:20;;;;;;;23.30;11.67;;;9.40;53.80;;;;;;4920991;29;20451;-85
2022/12/01 06:37:47;;;;;;;19.13;11.03;;;9.20;53.30;;;;;;4918742;29;20566;-87
2022/12/01 06:40:14;;;;;;;20.53;11.00;;;9.10;52.80;;;;;;4924873;29;20977;-84
2022/12/01 06:42:41;;;;;;;18.23;11.10;;;9.10;53.80;;;;;;4921405;29;20585;-85
2022/12/01 06:45:10;;;;;;;22.80;10.97;;;9.20;54.10;;;;;;4917829;29;20478;-87
2022/12/01 06:47:37;;;;;;;22.67;11.10;;;9.10;54.50;;;;;;4922765;29;20530;-86
2022/12/01 06:50:08;;;;;;;22.20;12.10;;;9.20;54.20;;;;;;4921206;29;20451;-84
2022/12/01 06:52:35;;;;;;;25.43;10.73;;;9.00;53.40;;;;;;4916977;29;20481;-87
2022/12/01 06:55:03;;;;;;;19.90;11.97;;;9.10;54.20;;;;;;4920260;29;20546;-85
2022/12/01 06:57:31;;;;;;;19.20;10.00;;;8.70;53.80;;;;;;4923046;29;20518;-85
2022/12/01 06:59:58;;;;;;;17.03;10.30;;;8.60;54.80;;;;;;4935534;29;20492;-86
2022/12/01 07:02:25;;;;;;;24.73;11.10;;;8.80;54.90;;;;;;4921180;29;20562;-85
2022/12/01 07:04:52;;;;;;;23.93;11.43;;;8.90;54.70;;;;;;4898760;29;20471;-87
2022/12/01 07:07:20;;;;;;;22.93;12.20;;;8.90;54.70;;;;;;4914928;29;20454;-85
2022/12/01 07:09:47;;;;;;;26.77;12.97;;;9.00;55.80;;;;;;4921083;29;20454;-86
2022/12/01 07:12:14;;;;;;;23.90;12.70;;;9.20;54.40;;;;;;4916910;29;20468;-87
2022/12/01 07:14:41;;;;;;;19.63;10.20;;;9.10;53.30;;;;;;4935694;29;20993;-87
2022/12/01 07:17:08;;;;;;;22.93;11.33;;;9.10;54.10;;;;;;4918247;29;20482;-85
2022/12/01 07:19:36;;;;;;;24.43;12.27;;;9.20;54.20;;;;;;4918518;29;20870;-84
2022/12/01 07:22:03;;;;;;;27.63;13.70;;;9.30;54.70;;;;;;4915381;29;20468;-85
2022/12/01 07:24:31;;;;;;;19.37;11.47;;;9.30;54.30;;;;;;4918440;29;20471;-88
2022/12/01 07:26:58;;;;;;;21.53;11.00;;;9.30;54.30;;;;;;4910171;29;20476;-86
2022/12/01 07:29:25;;;;;;;20.60;11.27;;;9.40;54.80;;;;;;4921400;29;20470;-85
2022/12/01 07:31:52;;;;;;;20.57;11.93;;;9.50;54.60;;;;;;4926840;29;20477;-85
2022/12/01 07:34:19;;;;;;;25.30;11.67;;;9.60;54.40;;;;;;4914096;29;20798;-88
2022/12/01 07:36:46;;;;;;;20.23;11.60;;;9.50;53.80;;;;;;4916138;29;20971;-86
2022/12/01 07:39:12;;;;;;;21.23;11.30;;;9.40;53.70;;;;;;4915260;29;20455;-85
2022/12/01 07:41:41;;;;;;;21.07;10.30;;;9.20;54.50;;;;;;4919685;29;20474;-85
2022/12/01 07:44:10;;;;;;;17.93;10.17;;;8.80;54.30;;;;;;4914943;29;20482;-85
2022/12/01 07:46:37;;;;;;;21.57;12.20;;;8.70;54.80;;;;;;4916167;29;20794;-86
2022/12/01 07:49:07;;;;;;;19.30;10.40;;;8.70;55.60;;;;;;4916767;29;20467;-88
2022/12/01 07:51:34;;;;;;;21.80;10.23;;;8.70;55.10;;;;;;4906705;29;20541;-84
2022/12/01 07:54:02;;;;;;;24.60;12.90;;;8.50;54.90;;;;;;4912286;29;20479;-83
2022/12/01 07:56:30;;;;;;;25.03;15.70;;;8.30;55.70;;;;;;4922094;29;20502;-85
2022/12/01 07:58:58;;;;;;;25.50;12.10;;;8.30;56.00;;;;;;4923935;29;20891;-88
2022/12/01 08:01:26;;;;;;;24.77;14.37;;;8.50;56.30;;;;;;4916378;29;20462;-84
2022/12/01 08:03:54;;;;;;;19.60;11.33;;;8.70;56.10;;;;;;4916508;29;20476;-85
2022/12/01 08:06:22;;;;;;;25.03;10.40;;;8.50;55.40;;;;;;4916514;29;20466;-86
2022/12/01 08:08:50;;;;;;;20.70;10.20;;;8.60;55.70;;;;;;4918857;29;20452;-88
2022/12/01 08:11:19;;;;;;;25.90;11.60;;;8.80;55.60;;;;;;4932418;29;20460;-84
2022/12/01 08:13:46;;;;;;;25.33;12.37;;;8.80;55.60;;;;;;4917768;29;21098;-85
2022/12/01 08:16:16;;;;;;;25.10;11.97;;;9.00;55.70;;;;;;4914537;29;20452;-84
2022/12/01 08:18:44;;;;;;;19.70;12.43;;;8.60;55.10;;;;;;4916980;29;20983;-83
2022/12/01 08:21:13;;;;;;;21.60;11.10;;;8.60;55.60;;;;;;4916595;29;20467;-88
2022/12/01 08:23:40;;;;;;;21.13;11.10;;;8.90;56.20;;;;;;4918146;29;20564;-84
2022/12/01 08:26:11;;;;;;;18.80;10.30;;;9.20;55.70;;;;;;4918929;29;20467;-84
2022/12/01 08:28:38;;;;;;;27.00;11.90;;;9.20;54.80;;;;;;4932920;29;20981;-88
2022/12/01 08:31:10;;;;;;;19.37;9.63;;;9.10;54.90;;;;;;4924313;29;20455;-85
2022/12/01 08:33:39;;;;;;;20.37;12.17;;;9.20;55.50;;;;;;4917725;29;20540;-84
2022/12/01 08:36:07;;;;;;;25.70;11.93;;;9.10;54.70;;;;;;4919340;29;20479;-83
2022/12/01 08:38:34;;;;;;;22.87;12.13;;;9.10;55.70;;;;;;4915956;29;20475;-81
2022/12/01 08:41:02;;;;;;;23.30;12.80;;;9.10;54.80;;;;;;4916497;29;20942;-85
2022/12/01 08:43:29;;;;;;;21.77;11.33;;;8.80;54.90;;;;;;4932928;28;20598;-86
2022/12/01 08:45:58;;;;;;;23.00;13.90;;;8.40;55.60;;;;;;4916113;29;20451;-85
2022/12/01 08:48:28;;;;;;;22.13;12.20;;;8.50;56.40;;;;;;4913778;29;21056;-87
2022/12/01 08:51:03;;;;;;;23.87;12.00;;;8.60;56.20;;;;;;4920353;29;20539;-86
2022/12/01 08:53:31;;;;;;;18.37;10.70;;;8.80;56.00;;;;;;4900919;29;20961;-86
2022/12/01 08:56:00;;;;;;;20.03;11.07;;;8.60;56.20;;;;;;4914146;29;20473;-88
2022/12/01 08:58:27;;;;;;;25.77;11.93;;;8.70;56.50;;;;;;4915043;29;20479;-85
2022/12/01 09:01:01;;;;;;;29.87;14.43;;;8.90;55.80;;;;;;4930799;29;20463;-85
2022/12/01 09:03:28;;;;;;;32.40;15.20;;;9.10;56.20;;;;;;4919327;29;20507;-87
2022/12/01 09:06:02;;;;;;;25.00;13.90;;;9.30;56.30;;;;;;4919890;29;20443;-85
2022/12/01 09:08:32;;;;;;;20.97;10.20;;;9.20;55.60;;;;;;4914684;29;20984;-85
2022/12/01 09:11:00;;;;;;;26.33;11.50;;;9.10;55.30;;;;;;4916951;29;20447;-85
2022/12/01 09:13:28;;;;;;;19.53;11.17;;;8.90;55.50;;;;;;4906855;29;20486;-85
2022/12/01 09:15:57;;;;;;;22.57;11.60;;;8.90;56.50;;;;;;4916246;29;20456;-85
2022/12/01 09:18:24;;;;;;;22.83;11.90;;;9.00;56.30;;;;;;4915989;29;20478;-88
2022/12/01 09:20:51;;;;;;;21.33;10.47;;;9.20;55.40;;;;;;4918119;29;20543;-89
2022/12/01 09:23:20;;;;;;;19.60;10.93;;;9.00;55.40;;;;;;4906120;29;20483;-85
2022/12/01 09:25:47;;;;;;;22.87;11.33;;;9.10;56.00;;;;;;4916594;29;20977;-86
2022/12/01 09:28:14;;;;;;;19.93;10.40;;;9.40;55.50;;;;;;4913336;29;20443;-85
2022/12/01 09:30:41;;;;;;;23.40;11.10;;;9.50;54.90;;;;;;4923420;29;20459;-86
2022/12/01 09:33:08;;;;;;;20.70;10.73;;;9.60;54.80;;;;;;4918854;29;20486;-84
2022/12/01 09:35:35;;;;;;;21.80;10.33;;;9.60;54.80;;;;;;4891283;29;20474;-88
2022/12/01 09:38:03;;;;;;;18.37;9.60;;;9.70;55.00;;;;;;4915816;29;21242;-85
2022/12/01 09:40:36;;;;;;;21.67;10.50;;;9.40;54.40;;;;;;4919582;29;20495;-86
2022/12/01 09:43:11;;;;;;;23.30;12.00;;;9.40;55.70;;;;;;4918446;29;20483;-85
2022/12/01 09:45:43;;;;;;;17.30;10.13;;;9.30;54.90;;;;;;4905532;29;20463;-85
2022/12/01 09:48:18;;;;;;;13.80;8.93;;;9.40;55.00;;;;;;4908977;29;20511;-86
2022/12/01 09:50:45;;;;;;;19.20;9.87;;;9.40;55.30;;;;;;4919536;29;20444;-87
2022/12/01 09:53:17;;;;;;;21.13;10.40;;;9.50;55.60;;;;;;4918217;29;20562;-85
2022/12/01 09:55:46;;;;;;;22.57;10.30;;;9.50;55.00;;;;;;4919112;29;20456;-85
2022/12/01 09:58:19;;;;;;;19.47;10.13;;;9.40;55.10;;;;;;4921219;29;20475;-84
2022/12/01 10:00:47;;;;;;;23.63;11.13;;;9.40;55.60;;;;;;4927329;29;20471;-85
2022/12/01 10:03:24;;;;;;;28.33;12.80;;;9.50;55.70;;;;;;4909986;29;20565;-84
2022/12/01 10:05:55;;;;;;;19.17;11.83;;;9.60;55.30;;;;;;4935132;29;20458;-85
2022/12/01 10:08:26;;;;;;;20.67;10.83;;;9.50;54.90;;;;;;4919176;29;20985;-85
2022/12/01 10:10:58;;;;;;;15.07;9.50;;;9.50;55.00;;;;;;4919476;29;20458;-86
2022/12/01 10:13:27;;;;;;;15.70;9.80;;;9.50;54.90;;;;;;4933575;29;20998;-85
2022/12/01 10:16:03;;;;;;;21.87;11.00;;;9.40;55.20;;;;;;4928293;29;20453;-90
2022/12/01 10:18:37;;;;;;;15.60;9.73;;;9.50;55.50;;;;;;4925928;29;20498;-88
2022/12/01 10:21:12;;;;;;;22.40;10.77;;;9.60;55.40;;;;;;4917900;29;20535;-85
2022/12/01 10:23:59;;;;;;;20.80;9.93;;;9.90;55.20;;;;;;4919016;29;20470;-85
2022/12/01 10:26:35;;;;;;;17.00;10.13;;;10.10;54.10;;;;;;4921067;29;20954;-85
2022/12/01 10:29:12;;;;;;;18.60;11.20;;;10.20;53.50;;;;;;4918650;29;21012;-85
2022/12/01 10:31:49;;;;;;;17.30;10.87;;;9.90;54.40;;;;;;4919639;29;20451;-85
2022/12/01 10:34:19;;;;;;;22.37;10.33;;;10.10;53.90;;;;;;4918097;29;20474;-88
2022/12/01 10:36:46;;;;;;;18.77;10.20;;;10.10;53.70;;;;;;4916890;29;20939;-85
2022/12/01 10:39:19;;;;;;;23.90;10.20;;;9.90;54.50;;;;;;4900888;29;21016;-84
2022/12/01 10:41:48;;;;;;;22.00;9.73;;;9.80;54.80;;;;;;4933203;29;20950;-85
2022/12/01 10:44:18;;;;;;;18.37;9.43;;;9.80;54.60;;;;;;4906297;29;20490;-85
2022/12/01 10:46:50;;;;;;;18.07;9.67;;;9.90;55.00;;;;;;4925715;29;20464;-86
2022/12/01 10:49:18;;;;;;;23.90;11.83;;;10.10;53.60;;;;;;4917427;29;20456;-84
2022/12/01 10:51:53;;;;;;;17.70;9.40;;;10.10;53.30;;;;;;4909177;29;20463;-85
2022/12/01 10:54:22;;;;;;;20.80;10.00;;;10.00;53.30;;;;;;4902097;29;20563;-85
2022/12/01 10:56:56;;;;;;;23.57;10.20;;;9.80;54.70;;;;;;4935759;29;20473;-85
2022/12/01 10:59:30;;;;;;;18.43;10.73;;;9.90;55.00;;;;;;4919413;29;20513;-84
2022/12/01 11:02:00;;;;;;;21.10;11.00;;;10.10;54.10;;;;;;4934055;29;20455;-84
2022/12/01 11:04:41;;;;;;;18.80;10.40;;;10.00;52.90;;;;;;4916325;29;20452;-85
2022/12/01 11:07:16;;;;;;;19.20;10.77;;;10.00;53.70;;;;;;4919371;29;20554;-88
2022/12/01 11:13:27;;;;;;;19.97;9.67;;;9.90;54.70;;;;;;5213318;23;20475;-85
2022/12/01 11:17:13;;;;;;;17.87;9.13;;;9.80;55.10;;;;;;4931501;28;21592;-85
2022/12/01 11:19:40;;;;;;;17.47;9.80;;;10.10;53.80;;;;;;4955221;28;21050;-85
2022/12/01 11:22:20;;;;;;;18.63;9.60;;;9.90;54.10;;;;;;4960788;28;20829;-85
2022/12/01 11:24:58;;;;;;;21.93;10.27;;;9.90;54.70;;;;;;4944928;28;20477;-84
2022/12/01 11:27:27;;;;;;;15.40;9.10;;;10.00;54.10;;;;;;4982744;28;20468;-85
2022/12/01 11:29:57;;;;;;;17.87;9.57;;;10.10;54.20;;;;;;4969700;28;20807;-85
2022/12/01 11:32:27;;;;;;;20.10;9.90;;;10.20;54.10;;;;;;4983608;28;20472;-84
2022/12/01 11:34:58;;;;;;;15.03;8.57;;;10.20;53.10;;;;;;4971531;28;20741;-85
2022/12/01 11:37:28;;;;;;;18.13;9.73;;;10.20;52.80;;;;;;4929634;28;20475;-84
2022/12/01 11:39:55;;;;;;;17.93;9.40;;;10.20;53.70;;;;;;4968280;28;20460;-85
2022/12/01 11:42:25;;;;;;;16.90;9.20;;;10.30;53.00;;;;;;4942497;28;20476;-82
2022/12/01 11:44:54;;;;;;;22.83;11.60;;;10.40;52.90;;;;;;4955510;28;21069;-85
2022/12/01 11:47:23;;;;;;;28.17;11.90;;;10.10;53.10;;;;;;4953096;28;20461;-84
2022/12/01 11:49:55;;;;;;;17.00;10.47;;;10.40;53.50;;;;;;4954958;28;20457;-85
2022/12/01 11:52:26;;;;;;;22.70;11.10;;;10.70;52.90;;;;;;4979921;28;20575;-83
2022/12/01 11:54:59;;;;;;;24.03;10.70;;;10.90;52.60;;;;;;4950503;28;20450;-84
2022/12/01 11:57:27;;;;;;;18.33;8.63;;;11.00;52.60;;;;;;4951250;28;21218;-84
2022/12/01 11:59:54;;;;;;;16.13;9.47;;;10.80;52.20;;;;;;4951451;28;20811;-85
2022/12/01 12:02:34;;;;;;;24.97;9.73;;;10.50;52.90;;;;;;4974833;28;20474;-84
2022/12/01 12:05:35;;;;;;;16.83;8.90;;;10.70;53.40;;;;;;4939497;28;20945;-84
2022/12/01 12:08:10;;;;;;;19.07;9.80;;;10.70;53.40;;;;;;4967366;28;20448;-84
2022/12/01 12:10:52;;;;;;;17.83;8.80;;;10.80;53.20;;;;;;4942909;28;20452;-84
2022/12/01 12:13:48;;;;;;;16.83;10.07;;;10.60;53.20;;;;;;4983910;28;20540;-85
2022/12/01 12:16:23;;;;;;;21.43;8.93;;;10.50;53.30;;;;;;4951074;28;20624;-82
2022/12/01 12:19:11;;;;;;;18.60;8.87;;;10.60;52.90;;;;;;4933718;29;20471;-85
2022/12/01 12:21:48;;;;;;;15.97;9.37;;;10.60;52.40;;;;;;4932289;29;20899;-83
2022/12/01 12:24:41;;;;;;;19.57;10.97;;;10.70;52.10;;;;;;4946033;28;20461;-83
2022/12/01 12:27:14;;;;;;;16.43;8.07;;;10.40;52.50;;;;;;4936597;29;20995;-84
2022/12/01 12:29:53;;;;;;;17.73;9.27;;;10.30;53.20;;;;;;4965354;28;20473;-84
2022/12/01 12:32:35;;;;;;;18.47;8.33;;;10.50;53.50;;;;;;4935188;29;20489;-85
2022/12/01 12:35:17;;;;;;;19.90;8.47;;;10.70;52.10;;;;;;4937075;28;20453;-85
2022/12/01 12:37:53;;;;;;;14.47;8.50;;;10.60;52.40;;;;;;4948018;28;20777;-84
2022/12/01 12:40:46;;;;;;;22.13;9.00;;;10.60;52.80;;;;;;4934347;29;20553;-85
2022/12/01 12:43:32;;;;;;;19.80;9.83;;;10.60;53.00;;;;;;4908952;29;20474;-84
2022/12/01 12:46:06;;;;;;;16.07;9.93;;;11.00;52.20;;;;;;4940134;29;20454;-84
2022/12/01 12:48:46;;;;;;;20.10;12.13;;;11.30;51.50;;;;;;4921588;29;20459;-85
2022/12/01 12:51:18;;;;;;;17.50;10.37;;;11.50;51.30;;;;;;4917538;29;20463;-84
2022/12/01 12:53:52;;;;;;;20.97;10.23;;;11.80;50.10;;;;;;4944398;28;20470;-85
2022/12/01 12:56:24;;;;;;;15.77;8.60;;;11.70;50.40;;;;;;4931233;28;20658;-85
2022/12/01 12:58:57;;;;;;;19.80;9.60;;;11.70;50.10;;;;;;4940847;29;21054;-85
2022/12/01 13:01:27;;;;;;;14.50;8.80;;;11.50;50.80;;;;;;4938120;29;20474;-85
2022/12/01 13:04:00;;;;;;;18.57;9.63;;;11.50;50.10;;;;;;4949602;28;20442;-85